Time;durP1;ratioP1;P1;durP2;ratioP2;P2;SDS_P1;SDS_P2;PMS_P1;PMS_P2;Temp;Humidity;BMP_temperature;BMP_pressure;BME280_temperature;BME280_humidity;BME280_pressure;Samples;Min_cycle;Max_cycle;Signal;HPM_P1;HPM_P2
2022/01/05 00:00:23;;;;;;;3.33;1.98;;;;;;;11.11;67.64;98392.00;4462834;32;32373;-84
2022/01/05 00:02:51;;;;;;;6.68;2.97;;;;;;;11.38;66.69;98390.13;4450752;32;31611;-85
2022/01/05 00:05:18;;;;;;;10.88;3.90;;;;;;;10.97;67.97;98380.63;4448718;32;32743;-85
2022/01/05 00:07:46;;;;;;;6.70;3.87;;;;;;;11.09;67.47;98383.34;4476835;32;33695;-85
2022/01/05 00:10:14;;;;;;;12.73;4.75;;;;;;;11.03;67.68;98380.19;4459548;32;32288;-85
2022/01/05 00:12:42;;;;;;;5.22;2.95;;;;;;;10.92;68.42;98387.13;4477575;32;34093;-85
2022/01/05 00:15:09;;;;;;;6.45;3.33;;;;;;;11.28;67.06;98381.12;4462148;32;34249;-84
2022/01/05 00:17:37;;;;;;;8.90;3.53;;;;;;;11.47;66.44;98378.91;4462422;32;32829;-84
2022/01/05 00:20:05;;;;;;;4.20;2.28;;;;;;;11.14;67.46;98378.59;4450699;32;32874;-85
2022/01/05 00:22:33;;;;;;;7.12;3.53;;;;;;;11.32;66.83;98373.84;4476385;32;34097;-84
2022/01/05 00:25:02;;;;;;;5.00;2.50;;;;;;;11.36;66.18;98360.31;4463194;32;35259;-84
2022/01/05 00:27:29;;;;;;;5.68;2.83;;;;;;;11.39;66.33;98359.25;4474759;32;34030;-85
2022/01/05 00:29:58;;;;;;;9.95;3.42;;;;;;;11.05;67.52;98361.59;4462694;32;33807;-85
2022/01/05 00:32:26;;;;;;;9.55;4.07;;;;;;;10.90;67.90;98362.63;4462772;32;33493;-85
2022/01/05 00:34:54;;;;;;;12.23;4.62;;;;;;;11.25;66.75;98353.16;4474515;32;32609;-85
2022/01/05 00:37:21;;;;;;;6.68;2.92;;;;;;;11.03;67.47;98347.66;4459432;32;33920;-85
2022/01/05 00:39:50;;;;;;;3.90;2.60;;;;;;;11.04;67.65;98349.34;4464914;32;34879;-85
2022/01/05 00:42:17;;;;;;;5.25;2.45;;;;;;;11.01;67.82;98355.69;4448647;32;33113;-84
2022/01/05 00:44:45;;;;;;;5.12;2.05;;;;;;;11.03;67.41;98348.50;4443031;32;32910;-83
2022/01/05 00:47:13;;;;;;;5.57;1.77;;;;;;;10.90;67.85;98362.63;4460617;32;32949;-84
2022/01/05 00:49:41;;;;;;;7.93;2.85;;;;;;;10.68;68.59;98360.59;4475159;32;32715;-84
2022/01/05 00:52:08;;;;;;;3.72;2.80;;;;;;;10.83;68.00;98366.66;4463601;32;32688;-84
2022/01/05 00:54:37;;;;;;;4.32;2.45;;;;;;;10.57;69.03;98371.03;4469388;32;34228;-84
2022/01/05 00:57:06;;;;;;;3.50;2.40;;;;;;;10.90;67.87;98362.63;4473725;32;34405;-84
2022/01/05 00:59:33;;;;;;;5.18;2.50;;;;;;;10.63;68.69;98368.81;4463468;32;33719;-84
2022/01/05 01:02:02;;;;;;;4.65;2.87;;;;;;;10.80;68.25;98359.78;4455439;32;33718;-85
2022/01/05 01:04:30;;;;;;;4.10;2.45;;;;;;;10.94;67.76;98370.25;4456312;32;34632;-85
2022/01/05 01:06:58;;;;;;;3.55;2.17;;;;;;;11.11;67.10;98373.53;4468191;32;33779;-85
2022/01/05 01:09:26;;;;;;;3.33;2.20;;;;;;;10.89;67.64;98382.91;4468873;32;32520;-84
2022/01/05 01:11:54;;;;;;;3.15;2.20;;;;;;;11.23;66.33;98375.31;4455076;32;33075;-85
2022/01/05 01:14:21;;;;;;;3.20;2.20;;;;;;;10.83;68.05;98375.41;4460954;32;34083;-85
2022/01/05 01:16:49;;;;;;;4.72;1.98;;;;;;;10.98;67.60;98366.44;4463282;32;34108;-85
2022/01/05 01:19:17;;;;;;;3.47;2.00;;;;;;;10.91;67.96;98364.31;4461394;32;33510;-84
2022/01/05 01:21:45;;;;;;;4.37;2.20;;;;;;;11.06;67.48;98362.44;4460654;32;33654;-84
2022/01/05 01:24:13;;;;;;;4.50;1.90;;;;;;;11.11;67.23;98355.03;4460458;32;33847;-84
2022/01/05 01:26:41;;;;;;;3.50;2.17;;;;;;;11.05;67.59;98358.09;4468749;32;33730;-84
2022/01/05 01:29:09;;;;;;;4.00;2.90;;;;;;;11.10;67.16;98354.19;4460482;32;32648;-84
2022/01/05 01:31:37;;;;;;;4.68;2.37;;;;;;;11.36;66.48;98349.75;4470416;32;31886;-84
2022/01/05 01:34:04;;;;;;;5.10;2.87;;;;;;;11.44;65.96;98336.84;4476203;32;34555;-83
2022/01/05 01:36:32;;;;;;;4.30;2.40;;;;;;;10.92;67.50;98339.59;4461975;32;32502;-83
2022/01/05 01:39:00;;;;;;;4.32;2.35;;;;;;;11.00;67.72;98342.56;4457423;32;33394;-83
2022/01/05 01:41:28;;;;;;;4.78;2.45;;;;;;;10.92;67.95;98351.03;4460587;32;32469;-84
2022/01/05 01:43:55;;;;;;;3.22;1.95;;;;;;;10.76;68.40;98363.56;4460989;32;33484;-83
2022/01/05 01:46:24;;;;;;;5.28;1.95;;;;;;;10.95;67.84;98349.97;4471695;32;32407;-83
2022/01/05 01:48:51;;;;;;;6.20;2.33;;;;;;;10.71;68.47;98352.47;4474906;32;34133;-84
2022/01/05 01:51:19;;;;;;;6.53;1.95;;;;;;;10.95;67.92;98334.13;4449167;32;31664;-84
2022/01/05 01:53:48;;;;;;;4.45;2.12;;;;;;;10.68;68.70;98339.47;4461974;32;32373;-83
2022/01/05 01:56:16;;;;;;;9.57;3.17;;;;;;;10.88;68.17;98336.34;4462142;32;33786;-83
2022/01/05 01:58:48;;;;;;;3.28;2.30;;;;;;;10.99;67.70;98336.44;4477069;32;34267;-84
2022/01/05 02:01:16;;;;;;;4.32;2.65;;;;;;;10.81;68.06;98337.69;4453130;32;32549;-83
2022/01/05 02:03:44;;;;;;;4.60;1.92;;;;;;;11.00;67.59;98343.41;4477818;32;33474;-83
2022/01/05 02:06:12;;;;;;;5.22;2.50;;;;;;;10.79;68.45;98350.16;4463593;32;32683;-84
2022/01/05 02:08:40;;;;;;;4.95;2.00;;;;;;;11.09;67.27;98335.81;4462846;32;34844;-83
2022/01/05 02:11:10;;;;;;;4.65;2.17;;;;;;;10.48;69.37;98346.94;4470201;32;33685;-83
2022/01/05 02:13:37;;;;;;;5.03;1.95;;;;;;;10.92;68.00;98350.16;4457222;32;33517;-83
2022/01/05 02:16:05;;;;;;;4.12;2.33;;;;;;;10.72;68.67;98339.16;4458531;32;34063;-83
2022/01/05 02:21:09;;;;;;;3.67;2.35;;;;;;;11.29;66.42;98340.53;4473943;32;33097;-83
2022/01/05 02:23:38;;;;;;;8.05;3.45;;;;;;;11.29;66.38;98333.47;4467119;32;33557;-83
2022/01/05 02:26:07;;;;;;;5.93;3.53;;;;;;;11.22;66.38;98323.44;4476069;32;33917;-83
2022/01/05 02:28:34;;;;;;;5.00;2.60;;;;;;;11.18;66.38;98329.91;4476095;32;34562;-83
2022/01/05 02:31:04;;;;;;;6.65;3.85;;;;;;;11.27;66.38;98334.53;4462460;32;34108;-83
2022/01/05 02:33:32;;;;;;;5.82;3.37;;;;;;;11.22;66.35;98326.09;4460631;32;32365;-83
2022/01/05 02:36:01;;;;;;;3.97;2.67;;;;;;;11.27;66.41;98321.31;4476690;32;34396;-83
2022/01/05 02:38:29;;;;;;;7.25;3.65;;;;;;;11.38;65.98;98315.28;4477053;32;33563;-83
2022/01/05 02:40:56;;;;;;;5.78;2.78;;;;;;;11.43;65.74;98310.50;4461857;32;32823;-84
2022/01/05 02:43:24;;;;;;;6.50;3.28;;;;;;;11.17;66.45;98304.44;4463409;32;32737;-85
2022/01/05 02:45:52;;;;;;;5.32;2.78;;;;;;;11.37;65.82;98308.31;4463677;32;34437;-85
2022/01/05 02:48:20;;;;;;;7.82;3.37;;;;;;;11.25;66.29;98307.34;4438870;32;34435;-85
2022/01/05 02:50:48;;;;;;;3.20;1.95;;;;;;;11.31;65.89;98301.66;4477194;32;32776;-85
2022/01/05 02:53:16;;;;;;;2.97;1.85;;;;;;;11.09;66.82;98306.75;4456500;32;33246;-85
2022/01/05 02:55:44;;;;;;;3.15;1.92;;;;;;;10.90;67.54;98310.66;4477122;32;33639;-85
2022/01/05 02:58:12;;;;;;;9.05;2.00;;;;;;;11.02;67.18;98303.72;4448084;32;31567;-85
2022/01/05 03:00:40;;;;;;;2.78;2.03;;;;;;;11.19;66.52;98307.81;4463939;32;32932;-85
2022/01/05 03:03:08;;;;;;;4.57;1.62;;;;;;;11.40;65.64;98314.22;4474169;32;33004;-85
2022/01/05 03:05:36;;;;;;;3.35;1.77;;;;;;;11.32;65.34;98306.00;4476050;32;33722;-84
2022/01/05 03:08:04;;;;;;;4.62;1.92;;;;;;;11.46;65.33;98303.22;4450330;32;32751;-84
2022/01/05 03:10:32;;;;;;;9.27;3.65;;;;;;;11.78;64.02;98303.56;4475626;32;33989;-84
2022/01/05 03:13:00;;;;;;;23.42;6.03;;;;;;;11.63;64.19;98309.09;4456303;32;32759;-84
2022/01/05 03:15:28;;;;;;;15.68;5.37;;;;;;;11.89;63.49;98302.81;4461459;32;34817;-85
2022/01/05 03:17:56;;;;;;;14.27;4.35;;;;;;;11.53;64.53;98309.75;4471046;32;33782;-85
2022/01/05 03:20:24;;;;;;;15.23;5.37;;;;;;;11.53;64.50;98300.97;4468324;32;33436;-85
2022/01/05 03:22:52;;;;;;;27.42;7.78;;;;;;;11.30;65.30;98307.91;4460160;32;33843;-85
2022/01/05 03:25:20;;;;;;;13.27;4.32;;;;;;;11.16;65.85;98310.69;4469537;32;34521;-84
2022/01/05 03:27:49;;;;;;;12.13;4.72;;;;;;;11.12;65.86;98307.41;4449441;32;33807;-85
2022/01/05 03:30:21;;;;;;;14.98;5.68;;;;;;;10.88;66.63;98314.38;4473490;32;35499;-85
2022/01/05 03:33:09;;;;;;;22.50;6.50;;;;;;;11.23;65.25;98315.41;4457201;32;33476;-85
2022/01/05 03:35:42;;;;;;;9.32;3.58;;;;;;;11.21;65.51;98304.13;4474498;32;33968;-85
2022/01/05 03:38:10;;;;;;;11.18;4.07;;;;;;;11.16;65.58;98310.69;4463843;32;32218;-85
2022/01/05 03:40:38;;;;;;;12.20;4.85;;;;;;;11.07;65.64;98303.38;4462947;32;33344;-85
2022/01/05 03:43:06;;;;;;;11.88;4.15;;;;;;;11.28;64.97;98294.78;4463857;32;34503;-85
2022/01/05 03:45:36;;;;;;;11.68;4.82;;;;;;;11.14;65.48;98302.00;4464267;32;33691;-84
2022/01/05 03:48:06;;;;;;;20.12;6.35;;;;;;;11.22;65.04;98305.78;4463435;32;35167;-85
2022/01/05 03:50:34;;;;;;;13.35;5.37;;;;;;;10.93;66.10;98307.81;4448885;32;32669;-84
2022/01/05 03:53:04;;;;;;;10.95;5.25;;;;;;;11.28;64.99;98297.44;4474905;32;34454;-84
2022/01/05 03:55:33;;;;;;;9.45;3.15;;;;;;;10.92;66.15;98292.06;4475425;32;33475;-84
2022/01/05 03:58:01;;;;;;;6.70;2.83;;;;;;;10.68;66.64;98294.59;4473676;32;34501;-84
2022/01/05 04:00:30;;;;;;;8.43;4.20;;;;;;;10.44;67.83;98295.31;4464608;32;32378;-84
2022/01/05 04:02:59;;;;;;;12.82;4.12;;;;;;;10.47;67.47;98289.81;4462595;32;32802;-84
2022/01/05 04:05:28;;;;;;;7.05;3.47;;;;;;;10.70;66.96;98285.63;4478067;32;33742;-84
2022/01/05 04:07:57;;;;;;;5.53;2.35;;;;;;;10.56;67.06;98279.59;4470826;32;32549;-84
2022/01/05 04:10:25;;;;;;;5.53;2.70;;;;;;;10.68;66.75;98279.63;4469155;32;33066;-84
2022/01/05 04:12:53;;;;;;;5.20;2.55;;;;;;;11.14;65.30;98278.22;4454276;32;31995;-84
2022/01/05 04:15:21;;;;;;;6.37;2.58;;;;;;;11.24;64.73;98276.63;4456845;32;33727;-85
2022/01/05 04:17:49;;;;;;;11.12;5.30;;;;;;;11.56;63.75;98268.19;4461481;32;33507;-85
2022/01/05 04:20:17;;;;;;;8.93;4.20;;;;;;;11.68;63.10;98275.22;4462071;32;32800;-85
2022/01/05 04:22:45;;;;;;;9.32;4.68;;;;;;;11.47;63.83;98272.34;4479539;32;33516;-85
2022/01/05 04:25:13;;;;;;;5.68;3.08;;;;;;;11.99;61.97;98263.28;4474120;32;34779;-84
2022/01/05 04:27:41;;;;;;;8.43;2.62;;;;;;;12.14;61.25;98262.16;4464566;32;32633;-85
2022/01/05 04:30:10;;;;;;;5.15;2.87;;;;;;;11.71;62.66;98272.38;4475852;32;33151;-84
2022/01/05 04:32:38;;;;;;;2.80;2.05;;;;;;;11.69;62.89;98272.50;4474668;32;33466;-85
2022/01/05 04:35:26;;;;;;;3.20;1.90;;;;;;;12.14;61.40;98270.09;4466204;32;32746;-85
2022/01/05 04:37:55;;;;;;;1.98;1.58;;;;;;;11.80;62.49;98274.34;4461858;32;34137;-85
2022/01/05 04:40:22;;;;;;;2.12;1.45;;;;;;;12.03;61.58;98273.53;4475959;32;33562;-84
2022/01/05 04:42:50;;;;;;;5.60;2.53;;;;;;;11.42;63.50;98280.59;4474281;32;33528;-84
2022/01/05 04:45:18;;;;;;;6.43;3.17;;;;;;;11.54;63.27;98277.09;4459258;32;33625;-84
2022/01/05 04:47:46;;;;;;;3.78;2.60;;;;;;;11.96;61.91;98268.81;4460101;32;32698;-85
2022/01/05 04:50:15;;;;;;;5.97;2.35;;;;;;;11.87;62.14;98270.34;4448792;32;32402;-84
2022/01/05 04:52:43;;;;;;;5.60;2.10;;;;;;;12.12;61.28;98269.38;4461085;32;33952;-84
2022/01/05 04:55:11;;;;;;;3.42;2.05;;;;;;;11.29;63.98;98275.31;4457641;32;33883;-84
2022/01/05 04:57:39;;;;;;;4.57;2.05;;;;;;;11.22;64.30;98274.09;4462995;32;32418;-84
2022/01/05 05:00:09;;;;;;;2.92;1.80;;;;;;;11.17;64.83;98259.53;4461932;32;33124;-84
2022/01/05 05:02:36;;;;;;;3.75;2.05;;;;;;;11.21;64.68;98256.56;4462257;32;33416;-84
2022/01/05 05:05:04;;;;;;;2.72;2.25;;;;;;;11.10;64.92;98259.09;4462813;32;34409;-84
2022/01/05 05:07:32;;;;;;;3.37;1.73;;;;;;;11.34;64.28;98261.78;4474093;32;32594;-84
2022/01/05 05:10:04;;;;;;;2.85;1.50;;;;;;;11.09;64.94;98261.84;4473805;32;33374;-84
2022/01/05 05:12:32;;;;;;;2.62;1.77;;;;;;;11.35;64.07;98257.38;4459608;32;32303;-83
2022/01/05 05:15:00;;;;;;;3.35;1.80;;;;;;;11.36;64.04;98262.53;4473205;32;35266;-83
2022/01/05 05:17:27;;;;;;;2.65;1.55;;;;;;;11.05;64.86;98263.84;4474483;32;33951;-83
2022/01/05 05:19:55;;;;;;;2.58;2.08;;;;;;;11.13;64.73;98263.31;4461978;32;33044;-83
2022/01/05 05:22:23;;;;;;;4.35;1.98;;;;;;;11.42;63.55;98259.44;4461453;32;33900;-83
2022/01/05 05:24:51;;;;;;;4.10;1.83;;;;;;;11.41;63.62;98263.06;4472149;32;34760;-83
2022/01/05 05:27:19;;;;;;;3.85;1.50;;;;;;;11.49;63.28;98271.28;4473535;32;34383;-84
2022/01/05 05:29:46;;;;;;;3.33;1.95;;;;;;;11.70;62.46;98262.75;4473473;32;33931;-83
2022/01/05 05:32:14;;;;;;;3.92;2.37;;;;;;;11.43;63.65;98262.94;4459036;32;34214;-83
2022/01/05 05:34:42;;;;;;;5.05;1.60;;;;;;;11.63;62.90;98266.78;4461938;32;33292;-83
2022/01/05 05:37:09;;;;;;;2.65;1.80;;;;;;;12.08;61.32;98267.06;4475483;32;33526;-84
2022/01/05 05:39:37;;;;;;;3.90;1.80;;;;;;;12.21;60.61;98266.03;4470740;32;31994;-84
2022/01/05 05:42:05;;;;;;;2.90;1.85;;;;;;;11.98;61.12;98267.75;4456355;32;34246;-83
2022/01/05 05:44:32;;;;;;;3.12;2.00;;;;;;;12.00;61.28;98276.41;4456812;32;34613;-84
2022/01/05 05:47:02;;;;;;;2.67;1.67;;;;;;;11.92;61.35;98283.22;4464251;32;33711;-84
2022/01/05 05:49:30;;;;;;;4.75;2.08;;;;;;;11.69;61.97;98296.28;4463339;32;31824;-85
2022/01/05 05:51:57;;;;;;;5.57;2.42;;;;;;;11.71;61.82;98288.22;4474886;32;33825;-85
2022/01/05 05:54:25;;;;;;;4.10;2.33;;;;;;;11.56;63.05;98292.00;4462887;32;33728;-85
2022/01/05 05:56:53;;;;;;;4.37;1.98;;;;;;;11.63;62.74;98299.38;4449633;32;34475;-84
2022/01/05 05:59:20;;;;;;;2.85;2.20;;;;;;;11.29;63.61;98291.19;4463586;32;33012;-85
2022/01/05 06:01:48;;;;;;;3.25;1.90;;;;;;;11.54;63.19;98289.47;4474787;31;34335;-84
2022/01/05 06:04:16;;;;;;;3.72;2.65;;;;;;;11.45;63.29;98290.97;4462966;32;34601;-85
2022/01/05 06:06:44;;;;;;;5.45;2.35;;;;;;;10.93;64.95;98293.78;4460427;32;33479;-85
2022/01/05 06:09:11;;;;;;;3.90;2.33;;;;;;;10.84;65.37;98295.25;4448708;32;32999;-85
2022/01/05 06:11:39;;;;;;;4.05;1.98;;;;;;;11.34;63.94;98298.78;4462550;32;34441;-84
2022/01/05 06:14:07;;;;;;;5.62;2.78;;;;;;;11.45;63.38;98296.25;4459615;32;34406;-84
2022/01/05 06:16:35;;;;;;;5.43;3.00;;;;;;;11.38;63.68;98289.69;4462460;32;32777;-84
2022/01/05 06:19:03;;;;;;;3.78;2.37;;;;;;;11.34;63.93;98290.84;4462051;32;30612;-84
2022/01/05 06:21:31;;;;;;;4.30;2.35;;;;;;;11.57;63.09;98291.03;4472619;32;33681;-83
2022/01/05 06:23:58;;;;;;;3.75;1.87;;;;;;;11.83;62.33;98295.31;4453603;32;33635;-86
2022/01/05 06:26:27;;;;;;;2.45;1.80;;;;;;;11.54;63.17;98292.94;4472586;32;33935;-87
2022/01/05 06:28:54;;;;;;;2.22;1.67;;;;;;;11.46;63.44;98292.66;4447916;32;33206;-86
2022/01/05 06:31:22;;;;;;;4.32;1.95;;;;;;;11.12;64.80;98293.34;4459552;32;33130;-86
2022/01/05 06:33:50;;;;;;;4.30;3.10;;;;;;;11.06;65.20;98296.38;4475035;32;33158;-86
2022/01/05 06:36:18;;;;;;;4.05;2.12;;;;;;;10.72;66.52;98304.00;4462734;32;32430;-86
2022/01/05 06:38:45;;;;;;;3.72;2.70;;;;;;;10.74;66.66;98307.41;4474610;32;32720;-86
2022/01/05 06:41:14;;;;;;;4.28;2.15;;;;;;;11.01;65.79;98305.50;4462355;32;34042;-87
2022/01/05 06:43:42;;;;;;;5.43;2.45;;;;;;;10.93;66.17;98309.63;4456956;32;33560;-87
2022/01/05 06:46:09;;;;;;;2.62;2.00;;;;;;;11.06;65.60;98306.97;4449007;32;32934;-87
2022/01/05 06:48:37;;;;;;;3.78;2.92;;;;;;;10.96;65.82;98302.31;4475586;32;33944;-87
2022/01/05 06:51:05;;;;;;;5.78;2.67;;;;;;;11.09;65.54;98296.19;4464225;32;34577;-86
2022/01/05 06:53:33;;;;;;;3.42;2.35;;;;;;;11.35;64.64;98297.84;4477983;32;33681;-86
2022/01/05 06:56:01;;;;;;;4.07;2.03;;;;;;;10.89;66.37;98305.50;4461447;32;32791;-87
2022/01/05 06:58:29;;;;;;;3.55;2.37;;;;;;;11.12;65.41;98312.69;4465402;32;31873;-86
2022/01/05 07:00:56;;;;;;;2.67;1.75;;;;;;;10.89;66.44;98308.97;4461526;32;33726;-86
2022/01/05 07:03:24;;;;;;;2.90;2.08;;;;;;;11.17;65.50;98307.06;4447718;32;32538;-86
2022/01/05 07:05:52;;;;;;;3.72;2.05;;;;;;;11.17;65.52;98312.34;4475172;32;34468;-86
2022/01/05 07:08:20;;;;;;;4.90;2.65;;;;;;;11.25;65.34;98313.50;4463051;32;32291;-86
2022/01/05 07:10:48;;;;;;;4.72;2.15;;;;;;;11.21;65.54;98303.28;4461752;32;34556;-86
2022/01/05 07:13:16;;;;;;;3.75;2.33;;;;;;;11.21;65.49;98300.63;4476550;32;33541;-86
2022/01/05 07:15:44;;;;;;;4.30;2.50;;;;;;;11.15;65.62;98301.03;4459104;32;33462;-85
2022/01/05 07:18:12;;;;;;;4.75;2.53;;;;;;;11.30;65.30;98307.91;4452161;32;32243;-86
2022/01/05 07:20:40;;;;;;;2.65;2.00;;;;;;;11.06;66.15;98310.44;4461477;32;33290;-86
2022/01/05 07:23:10;;;;;;;2.75;1.85;;;;;;;11.18;65.94;98314.88;4459891;32;33046;-86
2022/01/05 07:25:40;;;;;;;4.22;2.53;;;;;;;11.21;65.97;98319.13;4450951;32;33682;-87
2022/01/05 07:28:10;;;;;;;4.82;2.80;;;;;;;11.11;66.32;98318.03;4461916;32;32563;-87
2022/01/05 07:30:38;;;;;;;4.40;2.65;;;;;;;10.88;67.06;98317.00;4451211;32;32718;-87
2022/01/05 07:33:05;;;;;;;2.83;2.42;;;;;;;11.12;66.38;98320.59;4449301;32;32916;-87
2022/01/05 07:35:33;;;;;;;6.03;2.83;;;;;;;11.19;66.00;98315.72;4449426;32;32908;-87
2022/01/05 07:38:01;;;;;;;6.03;2.55;;;;;;;11.12;66.49;98325.88;4448941;32;32228;-87
2022/01/05 07:40:29;;;;;;;6.78;2.70;;;;;;;11.33;65.79;98315.59;4472249;32;33264;-87
2022/01/05 07:42:57;;;;;;;4.12;2.22;;;;;;;11.18;66.50;98317.53;4462877;32;34003;-87
2022/01/05 07:45:25;;;;;;;5.22;2.45;;;;;;;11.19;66.55;98315.72;4475847;32;33858;-87
2022/01/05 07:47:53;;;;;;;3.87;2.05;;;;;;;11.31;66.15;98312.25;4449542;32;32318;-88
2022/01/05 07:50:20;;;;;;;6.03;2.40;;;;;;;11.17;66.57;98309.72;4462041;32;33038;-88
2022/01/05 07:52:49;;;;;;;5.15;2.28;;;;;;;11.26;66.43;98306.44;4475835;32;34393;-87
2022/01/05 07:55:17;;;;;;;3.87;2.45;;;;;;;11.31;66.47;98306.94;4463025;32;33690;-87
2022/01/05 07:57:45;;;;;;;5.00;2.83;;;;;;;11.23;66.78;98306.63;4451891;32;33771;-87
2022/01/05 08:00:14;;;;;;;2.70;2.00;;;;;;;11.07;67.31;98303.38;4449626;32;33280;-88
2022/01/05 08:02:42;;;;;;;6.37;2.40;;;;;;;11.28;66.78;98307.16;4459723;32;34043;-89
2022/01/05 08:05:10;;;;;;;8.55;3.10;;;;;;;11.18;67.13;98308.75;4446931;32;32229;-87
2022/01/05 08:07:40;;;;;;;6.12;2.80;;;;;;;11.16;67.12;98318.59;4462346;32;32331;-88
2022/01/05 08:10:08;;;;;;;6.43;3.20;;;;;;;11.24;67.07;98314.44;4459356;32;32934;-88
2022/01/05 08:12:36;;;;;;;4.12;2.35;;;;;;;11.18;67.59;98319.31;4462931;32;33285;-87
2022/01/05 08:15:04;;;;;;;5.37;3.15;;;;;;;11.27;67.22;98330.09;4461142;32;33162;-88
2022/01/05 08:17:32;;;;;;;4.90;3.10;;;;;;;11.31;67.27;98330.72;4459685;32;31933;-88
2022/01/05 08:20:01;;;;;;;6.72;3.12;;;;;;;11.38;67.01;98333.78;4475875;32;32708;-88
2022/01/05 08:22:28;;;;;;;4.28;2.40;;;;;;;11.32;67.26;98342.16;4450818;32;33779;-88
2022/01/05 08:24:57;;;;;;;4.95;2.42;;;;;;;11.24;67.62;98335.59;4459788;32;34195;-88
2022/01/05 08:27:25;;;;;;;3.87;2.62;;;;;;;11.46;66.72;98329.66;4463835;32;32218;-88
2022/01/05 08:29:52;;;;;;;5.28;2.30;;;;;;;11.43;67.23;98321.09;4447396;32;32393;-87
2022/01/05 08:32:20;;;;;;;4.95;2.10;;;;;;;11.38;67.49;98326.69;4468346;32;100681;-87
2022/01/05 08:34:48;;;;;;;4.25;1.87;;;;;;;11.54;67.16;98334.41;4460161;32;32842;-88
2022/01/05 08:37:16;;;;;;;7.82;2.47;;;;;;;11.41;67.22;98346.78;4449141;32;31395;-89
2022/01/05 08:39:45;;;;;;;2.35;1.80;;;;;;;11.66;66.58;98340.59;4459941;32;32731;-85
2022/01/05 08:42:12;;;;;;;5.25;1.62;;;;;;;11.95;65.64;98346.47;4448305;32;32951;-86
2022/01/05 08:44:40;;;;;;;4.35;1.92;;;;;;;11.87;65.80;98341.75;4468857;32;34828;-87
2022/01/05 08:47:09;;;;;;;5.30;2.17;;;;;;;12.00;65.57;98328.47;4461623;32;33957;-87
2022/01/05 08:49:40;;;;;;;3.12;2.30;;;;;;;12.12;64.97;98332.03;4447458;32;33181;-86
2022/01/05 08:52:10;;;;;;;2.10;1.60;;;;;;;12.02;65.26;98337.16;4459870;32;33466;-87
2022/01/05 08:54:38;;;;;;;4.12;2.65;;;;;;;12.25;64.67;98346.06;4459915;32;32310;-86
2022/01/05 08:57:06;;;;;;;4.50;1.73;;;;;;;12.27;64.88;98330.91;4450914;31;30837;-86
2022/01/05 08:59:34;;;;;;;5.43;2.28;;;;;;;12.21;65.02;98340.13;4462327;32;34677;-86
2022/01/05 09:02:02;;;;;;;2.60;1.92;;;;;;;12.30;64.87;98349.19;4450126;31;32884;-86
2022/01/05 09:04:30;;;;;;;4.78;2.50;;;;;;;12.33;64.63;98343.66;4461584;32;32453;-86
2022/01/05 09:06:59;;;;;;;11.52;2.45;;;;;;;12.42;64.36;98350.94;4464046;31;33106;-86
2022/01/05 09:09:28;;;;;;;5.90;2.20;;;;;;;12.06;65.37;98367.72;4463020;32;34687;-86
2022/01/05 09:11:55;;;;;;;4.70;1.98;;;;;;;12.38;64.70;98364.50;4477021;31;33234;-85
2022/01/05 09:14:24;;;;;;;3.80;2.65;;;;;;;12.55;64.13;98359.66;4465365;31;33311;-86
2022/01/05 09:16:52;;;;;;;3.90;2.67;;;;;;;12.53;64.39;98355.41;4454632;32;32424;-86
2022/01/05 09:19:20;;;;;;;5.22;2.45;;;;;;;12.97;62.86;98354.72;4450214;31;33987;-86
2022/01/05 09:21:49;;;;;;;5.85;2.53;;;;;;;12.82;63.48;98369.16;4451719;31;32768;-86
2022/01/05 09:24:37;;;;;;;4.07;2.50;;;;;;;12.96;63.20;98374.25;4466027;32;32739;-87
2022/01/05 09:27:08;;;;;;;3.72;2.12;;;;;;;13.24;62.21;98365.00;4463345;32;32816;-86
2022/01/05 09:29:40;;;;;;;6.18;3.00;;;;;;;13.63;60.91;98364.69;4473566;31;34169;-87
2022/01/05 09:32:09;;;;;;;2.97;1.70;;;;;;;13.57;60.87;98384.56;4465198;32;33136;-86
2022/01/05 09:34:38;;;;;;;4.43;2.35;;;;;;;13.43;61.01;98390.94;4461044;31;33660;-86
2022/01/05 09:37:21;;;;;;;4.00;1.37;;;;;;;13.45;61.04;98397.00;4472118;31;32559;-86
2022/01/05 09:42:37;;;;;;;1.95;1.60;;;;;;;12.81;61.07;98396.56;4474625;31;32239;-86
2022/01/05 09:45:34;;;;;;;2.17;1.62;;;;;;;13.21;60.31;98396.22;4487271;31;31794;-86
2022/01/05 09:48:37;;;;;;;4.35;1.50;;;;;;;13.05;60.26;98394.75;4452688;32;32124;-86
2022/01/05 09:51:10;;;;;;;1.85;1.40;;;;;;;13.10;60.32;98398.81;4490441;31;36126;-87
2022/01/05 09:53:40;;;;;;;2.03;1.60;;;;;;;13.28;59.78;98397.44;4462862;31;33229;-86
2022/01/05 09:56:33;;;;;;;1.80;1.33;;;;;;;13.05;60.07;98386.78;4480028;31;34342;-86
2022/01/05 09:59:02;;;;;;;2.92;1.77;;;;;;;13.08;60.04;98383.03;4461563;31;33196;-86
2022/01/05 10:01:39;;;;;;;2.47;1.50;;;;;;;12.72;61.65;98384.00;4476416;31;33541;-86
2022/01/05 10:04:08;;;;;;;2.60;1.40;;;;;;;12.98;60.66;98385.56;4463698;31;32829;-86
2022/01/05 10:06:37;;;;;;;2.53;1.50;;;;;;;13.31;59.49;98383.97;4475084;31;33387;-86
2022/01/05 10:09:05;;;;;;;2.35;1.65;;;;;;;13.16;59.97;98390.41;4462520;31;32228;-86
2022/01/05 10:11:34;;;;;;;1.95;1.70;;;;;;;13.03;60.33;98396.62;4461750;31;33350;-86
2022/01/05 10:14:02;;;;;;;3.25;1.70;;;;;;;12.93;60.79;98397.47;4446893;32;34234;-86
2022/01/05 10:16:30;;;;;;;4.60;2.00;;;;;;;13.14;60.07;98394.97;4449250;32;34090;-86
2022/01/05 10:18:59;;;;;;;2.12;1.50;;;;;;;13.15;60.11;98394.88;4458987;32;33439;-87
2022/01/05 10:21:38;;;;;;;3.33;2.20;;;;;;;13.37;59.60;98390.59;4456772;32;34687;-86
2022/01/05 10:24:08;;;;;;;1.83;1.55;;;;;;;13.11;60.55;98389.94;4458976;32;33947;-86
2022/01/05 10:26:39;;;;;;;2.92;1.90;;;;;;;12.75;61.77;98391.75;4460281;32;32617;-86
2022/01/05 10:29:20;;;;;;;3.08;2.30;;;;;;;12.88;61.21;98392.50;4462806;32;32781;-86
2022/01/05 10:31:54;;;;;;;3.17;2.40;;;;;;;13.00;60.71;98394.22;4457307;32;32772;-86
2022/01/05 10:34:28;;;;;;;3.60;2.28;;;;;;;12.99;60.75;98392.53;4456747;32;34004;-86
2022/01/05 10:36:57;;;;;;;3.78;1.85;;;;;;;12.67;61.81;98394.94;4460655;32;33096;-86
2022/01/05 10:39:35;;;;;;;2.28;1.70;;;;;;;13.05;60.49;98391.22;4471289;32;33817;-86
2022/01/05 10:42:05;;;;;;;3.78;2.15;;;;;;;13.00;60.44;98396.88;4453323;32;32686;-87
2022/01/05 10:44:33;;;;;;;2.37;1.37;;;;;;;12.58;61.85;98403.59;4460709;32;34321;-86
2022/01/05 10:47:02;;;;;;;2.05;1.50;;;;;;;12.39;62.17;98409.41;4462598;32;33699;-86
2022/01/05 10:49:36;;;;;;;4.93;1.65;;;;;;;12.59;61.40;98409.75;4464480;32;32287;-87
2022/01/05 10:52:28;;;;;;;3.35;1.42;;;;;;;12.63;61.12;98417.34;4461937;32;34282;-87
2022/01/05 10:55:14;;;;;;;3.75;1.73;;;;;;;12.72;61.08;98421.09;4463499;32;34129;-86
2022/01/05 10:57:54;;;;;;;1.77;1.27;;;;;;;12.65;62.36;98420.72;4461118;32;33618;-86
2022/01/05 11:00:50;;;;;;;1.25;1.15;;;;;;;12.63;62.49;98417.34;4475119;32;34170;-86
2022/01/05 11:03:38;;;;;;;1.60;1.20;;;;;;;11.89;64.88;98432.41;4448873;32;33570;-86
2022/01/05 11:06:16;;;;;;;2.37;1.00;;;;;;;11.98;65.02;98431.75;4457811;32;33326;-86
2022/01/05 11:08:53;;;;;;;1.85;1.08;;;;;;;11.91;65.32;98435.78;4473478;32;33650;-86
2022/01/05 11:11:39;;;;;;;0.98;0.57;;;;;;;11.82;65.05;98444.38;4473425;32;34043;-85
2022/01/05 11:14:14;;;;;;;1.23;0.50;;;;;;;11.90;64.94;98442.03;4475493;32;33361;-86
2022/01/05 11:16:51;;;;;;;2.47;0.62;;;;;;;11.92;65.03;98453.34;4461595;32;33574;-86
2022/01/05 11:19:24;;;;;;;1.20;0.82;;;;;;;11.82;65.00;98468.19;4473389;31;33779;-86
2022/01/05 11:21:59;;;;;;;0.85;0.43;;;;;;;11.31;66.43;98462.84;4464106;32;32472;-86
2022/01/05 11:24:30;;;;;;;1.33;0.40;;;;;;;11.61;64.62;98457.25;4464082;32;33666;-86
2022/01/05 11:26:58;;;;;;;0.90;0.40;;;;;;;11.44;65.24;98453.16;4460911;31;33091;-87
2022/01/05 11:29:26;;;;;;;0.95;0.40;;;;;;;11.12;66.20;98465.06;4460953;32;32606;-86
2022/01/05 11:31:56;;;;;;;1.48;0.50;;;;;;;11.43;64.56;98462.00;4460337;31;33151;-86
2022/01/05 11:34:27;;;;;;;0.50;0.30;;;;;;;11.37;64.48;98467.72;4452403;31;32729;-86
2022/01/05 11:36:56;;;;;;;0.98;0.50;;;;;;;11.66;63.39;98470.16;4454367;32;32511;-86
2022/01/05 11:39:24;;;;;;;1.35;0.57;;;;;;;11.24;65.13;98482.69;4464991;31;33313;-86
2022/01/05 11:41:52;;;;;;;0.88;0.30;;;;;;;11.17;64.83;98499.94;4473571;31;34076;-86
2022/01/05 11:44:21;;;;;;;2.22;0.73;;;;;;;11.36;63.88;98512.75;4450211;32;33527;-85
2022/01/05 11:46:49;;;;;;;0.52;0.40;;;;;;;11.08;64.93;98513.75;4465229;31;33228;-86